Station Historical Data
Daily Summary for April 7, 2017 Units:  English    Metric   Both
Next Day »
Daily Weekly Monthly Yearly Custom
  High: Low: Average:
Temperature: 47.7 °F 42.7 °F 45.1 °F
Dew Point: 44.9 °F 40.0 °F 42.4 °F
Humidity: 91% 90% 90%
Wind Speed: 27.0mph 0.0mph 9.7mph
Wind Gust: 43.0mph - -
Wind- - South
Pressure: 29.94 in 29.78 in -
Precipitation: 1.48 in    
Historical Graphs
 
 
Tabular Data for April 7, 2017
Time Temperature Dew Point Pressure Wind Wind Speed Wind Gust Humidity Rainfall Rate (Hourly) solar Conditions
00:00 44.6 °F 41.8 °F 29.79 in SE 20.0 mph 35.0 mph 90% 0.16 in 0.00 W/m2
00:05 44.4 °F 41.7 °F 29.81 in SSW 11.0 mph 36.0 mph 90% 0.19 in 0.00 W/m2
00:10 44.3 °F 41.6 °F 29.81 in SSE 20.0 mph 30.0 mph 90% 0.34 in 0.00 W/m2
00:15 44.1 °F 41.4 °F 29.81 in SE 27.0 mph 28.0 mph 90% 0.18 in 0.00 W/m2
00:20 44.0 °F 41.3 °F 29.79 in South 22.0 mph 37.0 mph 90% 0.12 in 0.00 W/m2
00:25 43.8 °F 41.1 °F 29.79 in South 16.0 mph 36.0 mph 90% 0.13 in 0.00 W/m2
00:30 43.7 °F 41.0 °F 29.78 in SE 22.0 mph 28.0 mph 90% 0.20 in 0.00 W/m2
00:35 43.5 °F 40.8 °F 29.78 in ESE 20.0 mph 43.0 mph 90% 0.14 in 0.00 W/m2
00:40 43.3 °F 40.6 °F 29.79 in SSE 17.0 mph 30.0 mph 90% 0.17 in 0.00 W/m2
00:45 43.3 °F 40.6 °F 29.79 in SE 9.0 mph 32.0 mph 90% 0.14 in 0.00 W/m2
00:50 43.1 °F 40.4 °F 29.78 in SSE 12.0 mph 38.0 mph 90% 0.13 in 0.00 W/m2
00:55 42.9 °F 40.2 °F 29.78 in SSE 26.0 mph 40.0 mph 90% 0.22 in 0.00 W/m2
01:00 42.9 °F 40.2 °F 29.79 in South 19.0 mph 25.0 mph 90% 0.12 in 0.00 W/m2
01:05 42.8 °F 40.1 °F 29.80 in SSW 16.0 mph 40.0 mph 90% 0.12 in 0.00 W/m2
01:10 42.8 °F 40.1 °F 29.80 in SSW 18.0 mph 33.0 mph 90% 0.12 in 0.00 W/m2
01:15 42.7 °F 40.0 °F 29.80 in South 23.0 mph 31.0 mph 90% 0.08 in 0.00 W/m2
01:20 42.7 °F 40.0 °F 29.81 in SE 13.0 mph 32.0 mph 90% 0.09 in 0.00 W/m2
01:25 42.7 °F 40.0 °F 29.81 in SSW 15.0 mph 33.0 mph 90% 0.17 in 0.00 W/m2
01:30 42.7 °F 40.0 °F 29.81 in South 21.0 mph 34.0 mph 90% 0.14 in 0.00 W/m2
01:35 42.7 °F 40.0 °F 29.81 in South 17.0 mph 37.0 mph 90% 0.10 in 0.00 W/m2
01:40 42.7 °F 40.0 °F 29.81 in South 26.0 mph 29.0 mph 90% 0.09 in 0.00 W/m2
01:45 42.7 °F 40.0 °F 29.82 in SSW 21.0 mph 29.0 mph 90% 0.07 in 0.00 W/m2
01:50 42.7 °F 40.0 °F 29.82 in South 12.0 mph 23.0 mph 90% 0.07 in 0.00 W/m2
01:55 42.8 °F 40.1 °F 29.82 in South 6.0 mph 26.0 mph 90% 0.05 in 0.00 W/m2
02:00 42.8 °F 40.1 °F 29.82 in SSE 11.0 mph 26.0 mph 90% 0.05 in 0.00 W/m2
02:05 42.9 °F 40.2 °F 29.83 in South 16.0 mph 26.0 mph 90% 0.19 in 0.00 W/m2
02:10 42.9 °F 40.2 °F 29.82 in South 6.0 mph 25.0 mph 90% 0.18 in 0.00 W/m2
02:15 43.0 °F 40.3 °F 29.82 in South 24.0 mph 29.0 mph 90% 0.17 in 0.00 W/m2
02:20 43.0 °F 40.3 °F 29.82 in SSE 4.0 mph 25.0 mph 90% 0.18 in 0.00 W/m2
02:25 43.1 °F 40.4 °F 29.81 in South 23.0 mph 25.0 mph 90% 0.13 in 0.00 W/m2
02:30 43.3 °F 40.6 °F 29.82 in South 8.0 mph 25.0 mph 90% 0.10 in 0.00 W/m2
02:35 43.4 °F 40.7 °F 29.82 in SSW 15.0 mph 26.0 mph 90% 0.06 in 0.00 W/m2
02:40 43.5 °F 40.8 °F 29.82 in SSW 12.0 mph 19.0 mph 90% 0.05 in 0.00 W/m2
02:45 43.6 °F 40.9 °F 29.81 in South 16.0 mph 35.0 mph 90% 0.05 in 0.00 W/m2
02:50 43.7 °F 41.0 °F 29.82 in SSW 15.0 mph 24.0 mph 90% 0.07 in 0.00 W/m2
02:55 43.8 °F 41.1 °F 29.82 in SSW 6.0 mph 24.0 mph 90% 0.06 in 0.00 W/m2
03:00 43.8 °F 41.1 °F 29.83 in SSW 15.0 mph 28.0 mph 90% 0.06 in 0.00 W/m2
03:05 43.8 °F 41.1 °F 29.82 in SW 8.0 mph 29.0 mph 90% 0.08 in 0.00 W/m2
03:10 43.8 °F 41.1 °F 29.81 in SSW 16.0 mph 25.0 mph 90% 0.14 in 0.00 W/m2
03:16 43.8 °F 41.1 °F 29.82 in South 6.0 mph 24.0 mph 90% 0.08 in 0.00 W/m2
03:21 43.8 °F 41.1 °F 29.83 in SSW 20.0 mph 26.0 mph 90% 0.05 in 0.00 W/m2
03:26 43.8 °F 41.1 °F 29.83 in SSE 9.0 mph 24.0 mph 90% 0.00 in 0.00 W/m2
03:31 43.8 °F 41.1 °F 29.83 in South 12.0 mph 36.0 mph 90% 0.00 in 0.00 W/m2
03:36 43.8 °F 41.1 °F 29.83 in South 13.0 mph 30.0 mph 90% 0.00 in 0.00 W/m2
03:41 43.7 °F 41.0 °F 29.83 in South 12.0 mph 34.0 mph 90% 0.00 in 0.00 W/m2
03:46 43.7 °F 41.0 °F 29.83 in South 17.0 mph 27.0 mph 90% 0.00 in 0.00 W/m2
03:51 43.7 °F 41.0 °F 29.83 in South 14.0 mph 32.0 mph 90% 0.00 in 0.00 W/m2
03:56 43.7 °F 41.0 °F 29.83 in South 9.0 mph 32.0 mph 90% 0.00 in 0.00 W/m2
04:01 43.7 °F 41.0 °F 29.84 in SW 15.0 mph 36.0 mph 90% 0.00 in 0.00 W/m2
04:06 43.7 °F 41.0 °F 29.83 in SW 7.0 mph 35.0 mph 90% 0.00 in 0.00 W/m2
04:11 43.7 °F 41.0 °F 29.83 in SSE 14.0 mph 34.0 mph 90% 0.00 in 0.00 W/m2
04:16 43.7 °F 41.0 °F 29.84 in SSW 7.0 mph 24.0 mph 90% 0.00 in 0.00 W/m2
04:21 43.7 °F 41.0 °F 29.84 in SSW 8.0 mph 19.0 mph 90% 0.00 in 0.00 W/m2
04:26 43.7 °F 41.0 °F 29.84 in South 21.0 mph 23.0 mph 90% 0.00 in 0.00 W/m2
04:31 43.8 °F 41.1 °F 29.83 in SSE 5.0 mph 27.0 mph 90% 0.00 in 0.00 W/m2
04:36 43.8 °F 41.1 °F 29.84 in SSW 20.0 mph 24.0 mph 90% 0.00 in 0.00 W/m2
04:41 43.8 °F 41.1 °F 29.84 in South 6.0 mph 6.0 mph 90% 0.00 in 0.00 W/m2
04:46 43.8 °F 41.1 °F 29.84 in South 5.0 mph 6.0 mph 90% 0.04 in 0.00 W/m2
04:51 43.8 °F 41.1 °F 29.84 in South 7.0 mph 12.0 mph 90% 0.04 in 0.00 W/m2
04:56 43.8 °F 41.1 °F 29.84 in SSW 4.0 mph 7.0 mph 90% 0.06 in 0.00 W/m2
05:01 43.7 °F 41.0 °F 29.85 in SSW 10.0 mph 16.0 mph 90% 0.06 in 0.00 W/m2
05:06 43.6 °F 40.9 °F 29.86 in SSW 7.0 mph 9.0 mph 90% 0.07 in 0.00 W/m2
05:11 43.5 °F 40.8 °F 29.85 in South 15.0 mph 15.0 mph 90% 0.14 in 0.00 W/m2
05:16 43.4 °F 40.7 °F 29.85 in South 12.0 mph 14.0 mph 90% 0.19 in 0.00 W/m2
05:21 43.4 °F 40.7 °F 29.85 in South 6.0 mph 13.0 mph 90% 0.13 in 0.00 W/m2
05:26 43.3 °F 40.6 °F 29.85 in SSW 9.0 mph 9.0 mph 90% 0.17 in 0.00 W/m2
05:31 43.3 °F 40.6 °F 29.86 in SW 2.0 mph 8.0 mph 90% 0.12 in 0.00 W/m2
05:36 43.3 °F 40.6 °F 29.86 in Calm   4.0 mph 90% 0.13 in 0.00 W/m2
05:41 43.3 °F 40.6 °F 29.86 in South 11.0 mph 13.0 mph 90% 0.08 in 0.00 W/m2
05:46 43.3 °F 40.6 °F 29.86 in South 7.0 mph 8.0 mph 90% 0.08 in 0.00 W/m2
05:51 43.3 °F 40.6 °F 29.86 in SE 6.0 mph 14.0 mph 90% 0.06 in 0.00 W/m2
05:56 43.3 °F 40.6 °F 29.86 in SSE 13.0 mph 13.0 mph 90% 0.04 in 0.00 W/m2
06:01 43.3 °F 40.6 °F 29.86 in SSW 12.0 mph 12.0 mph 90% 0.00 in 0.00 W/m2
06:06 43.2 °F 40.5 °F 29.86 in South 21.0 mph 24.0 mph 90% 0.00 in 0.00 W/m2
06:11 43.2 °F 40.5 °F 29.86 in SSE 12.0 mph 17.0 mph 90% 0.00 in 0.00 W/m2
06:16 43.1 °F 40.4 °F 29.86 in SSE 11.0 mph 13.0 mph 90% 0.00 in 0.00 W/m2
06:21 43.1 °F 40.4 °F 29.86 in South 15.0 mph 24.0 mph 90% 0.00 in 0.00 W/m2
06:26 43.1 °F 40.4 °F 29.86 in South 10.0 mph 11.0 mph 90% 0.00 in 0.00 W/m2
06:31 43.1 °F 40.4 °F 29.86 in South 12.0 mph 22.0 mph 90% 0.00 in 0.00 W/m2
06:36 43.0 °F 40.3 °F 29.86 in SSE 10.0 mph 14.0 mph 90% 0.00 in 0.00 W/m2
06:42 43.0 °F 40.3 °F 29.87 in South 15.0 mph 24.0 mph 90% 0.00 in 0.00 W/m2
06:46 43.0 °F 40.3 °F 29.87 in South 12.0 mph 20.0 mph 90% 0.00 in 0.00 W/m2
06:52 43.0 °F 40.3 °F 29.87 in SSE 14.0 mph 26.0 mph 90% 0.00 in 0.00 W/m2
06:57 42.9 °F 40.2 °F 29.86 in SSE 7.0 mph 18.0 mph 90% 0.00 in 0.00 W/m2
07:02 42.9 °F 40.2 °F 29.87 in South 19.0 mph 20.0 mph 90% 0.00 in 0.00 W/m2
07:07 42.9 °F 40.2 °F 29.88 in SE 7.0 mph 22.0 mph 90% 0.00 in 5.00 W/m2
07:12 42.9 °F 40.2 °F 29.88 in SSE 16.0 mph 34.0 mph 90% 0.00 in 7.00 W/m2
07:17 42.9 °F 40.2 °F 29.87 in South 10.0 mph 21.0 mph 90% 0.00 in 11.00 W/m2
07:22 42.9 °F 40.2 °F 29.88 in SSE 11.0 mph 16.0 mph 90% 0.00 in 9.00 W/m2
07:27 42.9 °F 40.2 °F 29.87 in SSE 21.0 mph 21.0 mph 90% 0.00 in 7.00 W/m2
07:32 42.9 °F 40.2 °F 29.88 in South 23.0 mph 23.0 mph 90% 0.00 in 5.00 W/m2
07:37 43.0 °F 40.3 °F 29.88 in South 11.0 mph 15.0 mph 90% 0.00 in 7.00 W/m2
07:42 43.0 °F 40.3 °F 29.88 in SSE 8.0 mph 23.0 mph 90% 0.00 in 14.00 W/m2
07:47 43.0 °F 40.3 °F 29.88 in South 17.0 mph 21.0 mph 90% 0.00 in 16.00 W/m2
07:52 43.1 °F 40.4 °F 29.88 in South 11.0 mph 19.0 mph 90% 0.00 in 12.00 W/m2
07:57 43.1 °F 40.7 °F 29.88 in SSE 17.0 mph 17.0 mph 91% 0.00 in 14.00 W/m2
08:02 43.1 °F 40.7 °F 29.89 in South 7.0 mph 18.0 mph 91% 0.00 in 19.00 W/m2
08:07 43.2 °F 40.8 °F 29.89 in SSE 5.0 mph 15.0 mph 91% 0.00 in 23.00 W/m2
08:12 43.2 °F 40.8 °F 29.89 in South 15.0 mph 26.0 mph 91% 0.00 in 28.00 W/m2
08:17 43.3 °F 40.8 °F 29.88 in SE 7.0 mph 27.0 mph 91% 0.00 in 18.00 W/m2
08:22 43.3 °F 40.8 °F 29.89 in SSE 6.0 mph 24.0 mph 91% 0.00 in 33.00 W/m2
08:26 43.4 °F 41.0 °F 29.88 in SSW 15.0 mph 25.0 mph 91% 0.00 in 33.00 W/m2
08:31 43.4 °F 41.0 °F 29.89 in South 7.0 mph 19.0 mph 91% 0.00 in 30.00 W/m2
08:36 43.5 °F 40.8 °F 29.89 in SSE 9.0 mph 24.0 mph 90% 0.00 in 32.00 W/m2
08:41 43.6 °F 40.9 °F 29.89 in SSW 13.0 mph 26.0 mph 90% 0.00 in 30.00 W/m2
08:46 43.6 °F 40.9 °F 29.89 in SSE 14.0 mph 25.0 mph 90% 0.00 in 30.00 W/m2
08:51 43.7 °F 41.0 °F 29.89 in South 6.0 mph 23.0 mph 90% 0.00 in 30.00 W/m2
08:56 43.8 °F 41.3 °F 29.89 in South 5.0 mph 23.0 mph 91% 0.00 in 35.00 W/m2
09:01 43.9 °F 41.5 °F 29.90 in SSE 4.0 mph 24.0 mph 91% 0.00 in 54.00 W/m2
09:06 44.0 °F 41.5 °F 29.89 in South 9.0 mph 26.0 mph 91% 0.00 in 51.00 W/m2
09:11 44.1 °F 41.7 °F 29.89 in SSE 17.0 mph 26.0 mph 91% 0.00 in 46.00 W/m2
09:16 44.2 °F 41.5 °F 29.90 in SSE 16.0 mph 22.0 mph 90% 0.00 in 56.00 W/m2
09:21 44.2 °F 41.5 °F 29.90 in SE 12.0 mph 22.0 mph 90% 0.00 in 37.00 W/m2
09:26 44.3 °F 41.6 °F 29.90 in South 22.0 mph 22.0 mph 90% 0.00 in 42.00 W/m2
09:31 44.3 °F 41.6 °F 29.91 in South 8.0 mph 24.0 mph 90% 0.00 in 32.00 W/m2
09:36 44.3 °F 41.6 °F 29.91 in South 7.0 mph 19.0 mph 90% 0.00 in 40.00 W/m2
09:41 44.4 °F 41.7 °F 29.91 in SSE 8.0 mph 20.0 mph 90% 0.00 in 46.00 W/m2
09:46 44.4 °F 41.7 °F 29.92 in SSE 12.0 mph 12.0 mph 90% 0.00 in 32.00 W/m2
09:51 44.5 °F 42.0 °F 29.92 in SSE 10.0 mph 17.0 mph 91% 0.00 in 33.00 W/m2
09:56 44.5 °F 41.8 °F 29.92 in SSE 14.0 mph 20.0 mph 90% 0.00 in 39.00 W/m2
10:01 44.5 °F 41.8 °F 29.92 in SSW 13.0 mph 15.0 mph 90% 0.00 in 53.00 W/m2
10:06 44.6 °F 41.8 °F 29.92 in SSW 9.0 mph 17.0 mph 90% 0.00 in 46.00 W/m2
10:11 44.6 °F 41.8 °F 29.92 in SSE 9.0 mph 19.0 mph 90% 0.00 in 37.00 W/m2
10:16 44.7 °F 42.0 °F 29.92 in SSE 14.0 mph 27.0 mph 90% 0.00 in 25.00 W/m2
10:21 44.7 °F 42.0 °F 29.92 in South 12.0 mph 22.0 mph 90% 0.00 in 60.00 W/m2
10:26 44.7 °F 42.0 °F 29.93 in SSW 6.0 mph 22.0 mph 90% 0.00 in 79.00 W/m2
10:31 44.7 °F 42.0 °F 29.93 in SSW 12.0 mph 20.0 mph 90% 0.00 in 46.00 W/m2
10:36 44.8 °F 42.0 °F 29.93 in SSW 10.0 mph 20.0 mph 90% 0.00 in 33.00 W/m2
10:41 44.9 °F 42.2 °F 29.93 in South 15.0 mph 20.0 mph 90% 0.00 in 35.00 W/m2
10:46 44.9 °F 42.2 °F 29.94 in South 2.0 mph 21.0 mph 90% 0.00 in 56.00 W/m2
10:51 45.0 °F 42.2 °F 29.94 in South 11.0 mph 19.0 mph 90% 0.00 in 35.00 W/m2
10:56 45.1 °F 42.3 °F 29.93 in SSE 6.0 mph 18.0 mph 90% 0.00 in 58.00 W/m2
11:01 45.1 °F 42.3 °F 29.94 in SSW 13.0 mph 16.0 mph 90% 0.00 in 28.00 W/m2
11:06 45.2 °F 42.5 °F 29.94 in Calm   17.0 mph 90% 0.00 in 25.00 W/m2
11:11 45.2 °F 42.5 °F 29.94 in SW 3.0 mph 15.0 mph 90% 0.00 in 25.00 W/m2
11:16 45.3 °F 42.5 °F 29.94 in South 9.0 mph 15.0 mph 90% 0.00 in 83.00 W/m2
11:21 45.3 °F 42.5 °F 29.94 in SSW 11.0 mph 23.0 mph 90% 0.00 in 109.00 W/m2
11:26 45.4 °F 42.6 °F 29.94 in SSW 15.0 mph 16.0 mph 90% 0.00 in 63.00 W/m2
11:31 45.5 °F 42.7 °F 29.94 in South 19.0 mph 22.0 mph 90% 0.00 in 134.00 W/m2
11:36 45.6 °F 42.8 °F 29.94 in South 6.0 mph 23.0 mph 90% 0.00 in 142.00 W/m2
11:41 45.7 °F 42.9 °F 29.94 in SSE 9.0 mph 22.0 mph 90% 0.00 in 116.00 W/m2
11:46 45.8 °F 43.3 °F 29.94 in SW 7.0 mph 20.0 mph 91% 0.00 in 149.00 W/m2
11:51 46.0 °F 43.5 °F 29.94 in SSE 7.0 mph 20.0 mph 91% 0.00 in 250.00 W/m2
11:56 46.1 °F 43.6 °F 29.94 in SW 4.0 mph 24.0 mph 91% 0.00 in 144.00 W/m2
12:01 46.2 °F 43.4 °F 29.94 in South 8.0 mph 22.0 mph 90% 0.00 in 125.00 W/m2
12:06 46.2 °F 43.4 °F 29.93 in SSE 9.0 mph 13.0 mph 90% 0.00 in 179.00 W/m2
12:11 46.3 °F 43.5 °F 29.94 in South 15.0 mph 22.0 mph 90% 0.00 in 352.00 W/m2
12:16 46.4 °F 43.9 °F 29.94 in SSE 17.0 mph 21.0 mph 91% 0.00 in 265.00 W/m2
12:21 46.4 °F 43.9 °F 29.93 in South 7.0 mph 15.0 mph 91% 0.00 in 353.00 W/m2
12:26 46.6 °F 43.8 °F 29.93 in South 5.0 mph 15.0 mph 90% 0.00 in 427.00 W/m2
12:31 46.8 °F 44.0 °F 29.93 in SSW 7.0 mph 20.0 mph 90% 0.00 in 287.00 W/m2
12:36 46.9 °F 44.1 °F 29.93 in SSW 8.0 mph 18.0 mph 90% 0.00 in 260.00 W/m2
12:41 47.0 °F 44.2 °F 29.92 in Calm   11.0 mph 90% 0.00 in 141.00 W/m2
12:46 47.1 °F 44.3 °F 29.93 in SSE 6.0 mph 11.0 mph 90% 0.00 in 241.00 W/m2
12:51 47.2 °F 44.4 °F 29.93 in South 11.0 mph 16.0 mph 90% 0.00 in 323.00 W/m2
12:56 47.3 °F 44.5 °F 29.93 in South 17.0 mph 17.0 mph 90% 0.00 in 253.00 W/m2
13:01 47.3 °F 44.5 °F 29.93 in SSW 13.0 mph 16.0 mph 90% 0.00 in 213.00 W/m2
13:07 47.3 °F 44.5 °F 29.93 in SW 11.0 mph 13.0 mph 90% 0.00 in 185.00 W/m2
13:12 47.3 °F 44.8 °F 29.92 in South 23.0 mph 23.0 mph 91% 0.00 in 204.00 W/m2
13:17 47.3 °F 44.8 °F 29.93 in SSW 14.0 mph 23.0 mph 91% 0.00 in 156.00 W/m2
13:22 47.2 °F 44.7 °F 29.93 in SW 10.0 mph 15.0 mph 91% 0.00 in 172.00 W/m2
13:27 47.2 °F 44.7 °F 29.93 in SW 8.0 mph 12.0 mph 91% 0.00 in 193.00 W/m2
13:32 47.2 °F 44.7 °F 29.93 in SSW 6.0 mph 13.0 mph 91% 0.00 in 209.00 W/m2
13:37 47.2 °F 44.4 °F 29.92 in SSE 8.0 mph 18.0 mph 90% 0.00 in 183.00 W/m2
13:42 47.1 °F 44.3 °F 29.92 in South 17.0 mph 20.0 mph 90% 0.00 in 288.00 W/m2
13:47 47.3 °F 44.5 °F 29.92 in SSW 7.0 mph 15.0 mph 90% 0.00 in 334.00 W/m2
13:52 47.3 °F 44.5 °F 29.92 in South 20.0 mph 20.0 mph 90% 0.00 in 251.00 W/m2
13:57 47.4 °F 44.6 °F 29.91 in SSW 11.0 mph 16.0 mph 90% 0.00 in 86.00 W/m2
14:02 47.4 °F 44.6 °F 29.92 in SSW 2.0 mph 12.0 mph 90% 0.00 in 74.00 W/m2
14:07 47.6 °F 44.8 °F 29.91 in South 6.0 mph 12.0 mph 90% 0.00 in 142.00 W/m2
14:12 47.7 °F 44.9 °F 29.91 in South 3.0 mph 22.0 mph 90% 0.00 in 100.00 W/m2
14:17 47.7 °F 44.9 °F 29.91 in SSW 7.0 mph 16.0 mph 90% 0.00 in 65.00 W/m2
14:22 47.6 °F 44.8 °F 29.90 in SSW 6.0 mph 11.0 mph 90% 0.00 in 67.00 W/m2
14:27 47.6 °F 44.8 °F 29.90 in SSE 6.0 mph 12.0 mph 90% 0.13 in 25.00 W/m2
14:32 47.5 °F 44.7 °F 29.90 in South 10.0 mph 10.0 mph 90% 0.17 in 95.00 W/m2
14:37 47.5 °F 44.7 °F 29.90 in SSW 7.0 mph 16.0 mph 90% 0.12 in 107.00 W/m2
14:42 47.4 °F 44.6 °F 29.90 in South 6.0 mph 12.0 mph 90% 0.06 in 134.00 W/m2
14:47 47.4 °F 44.6 °F 29.90 in SSW 5.0 mph 7.0 mph 90% 0.04 in 74.00 W/m2
14:52 47.4 °F 44.6 °F 29.89 in South 12.0 mph 12.0 mph 90% 0.00 in 88.00 W/m2
14:57 47.4 °F 44.6 °F 29.89 in SSW 10.0 mph 22.0 mph 90% 0.00 in 88.00 W/m2
15:02 47.3 °F 44.5 °F 29.89 in SSW 5.0 mph 17.0 mph 90% 0.00 in 63.00 W/m2
15:07 47.1 °F 44.3 °F 29.89 in South 12.0 mph 20.0 mph 90% 0.00 in 35.00 W/m2
15:12 47.0 °F 44.2 °F 29.89 in South 10.0 mph 11.0 mph 90% 0.08 in 60.00 W/m2
15:17 47.0 °F 44.2 °F 29.89 in SW 9.0 mph 15.0 mph 90% 0.18 in 60.00 W/m2
15:22 46.9 °F 44.1 °F 29.89 in SSW 4.0 mph 11.0 mph 90% 0.20 in 44.00 W/m2
15:27 46.9 °F 44.1 °F 29.89 in South 11.0 mph 18.0 mph 90% 0.22 in 19.00 W/m2
15:32 46.8 °F 44.0 °F 29.89 in South 6.0 mph 15.0 mph 90% 0.22 in 46.00 W/m2
15:35 46.8 °F 44.0 °F 29.89 in SSW 11.0 mph 17.0 mph 90% 0.21 in 30.00 W/m2
15:40 46.6 °F 43.8 °F 29.89 in SSW 6.0 mph 19.0 mph 90% 0.23 in 65.00 W/m2
15:45 46.5 °F 43.7 °F 29.88 in SSW 3.0 mph 17.0 mph 90% 0.18 in 56.00 W/m2
15:50 46.5 °F 43.7 °F 29.88 in SSW 5.0 mph 15.0 mph 90% 0.14 in 51.00 W/m2
15:55 46.6 °F 43.8 °F 29.88 in Calm   11.0 mph 90% 0.12 in 18.00 W/m2
16:00 46.7 °F 43.9 °F 29.88 in Calm   9.0 mph 90% 0.10 in 18.00 W/m2
16:05 46.7 °F 43.9 °F 29.87 in Calm     90% 0.07 in 18.00 W/m2
16:10 46.8 °F 44.0 °F 29.88 in SSW 12.0 mph 12.0 mph 90% 0.15 in 33.00 W/m2
16:15 46.5 °F 43.7 °F 29.88 in SW 6.0 mph 20.0 mph 90% 0.23 in 39.00 W/m2
16:20 46.1 °F 43.3 °F 29.88 in West 1.0 mph 19.0 mph 90% 0.24 in 30.00 W/m2
16:25 45.8 °F 43.0 °F 29.88 in West 4.0 mph 13.0 mph 90% 0.24 in 19.00 W/m2
16:30 45.6 °F 42.8 °F 29.88 in Calm   13.0 mph 90% 0.22 in 30.00 W/m2
16:35 45.5 °F 42.7 °F 29.88 in Calm   8.0 mph 90% 0.22 in 21.00 W/m2
16:40 45.5 °F 42.7 °F 29.88 in SW 8.0 mph 9.0 mph 90% 0.25 in 11.00 W/m2
16:45 45.4 °F 42.6 °F 29.88 in WSW 1.0 mph 7.0 mph 90% 0.24 in 63.00 W/m2
16:51 45.5 °F 42.7 °F 29.88 in Calm   13.0 mph 90% 0.22 in 28.00 W/m2
16:56 45.5 °F 42.7 °F 29.87 in SSW 5.0 mph 12.0 mph 90% 0.18 in 35.00 W/m2
17:01 45.6 °F 42.8 °F 29.88 in Calm   9.0 mph 90% 0.17 in 28.00 W/m2
17:06 45.7 °F 42.9 °F 29.88 in South 7.0 mph 10.0 mph 90% 0.17 in 67.00 W/m2
17:11 45.8 °F 43.0 °F 29.87 in Calm   10.0 mph 90% 0.12 in 81.00 W/m2
17:16 45.9 °F 43.1 °F 29.87 in SW 9.0 mph 14.0 mph 90% 0.12 in 54.00 W/m2
17:21 46.0 °F 43.2 °F 29.87 in Calm   6.0 mph 90% 0.10 in 35.00 W/m2
17:26 46.1 °F 43.3 °F 29.87 in Calm     90% 0.06 in 19.00 W/m2
17:31 46.3 °F 43.5 °F 29.87 in Calm     90% 0.04 in 16.00 W/m2
17:36 46.3 °F 43.5 °F 29.87 in Calm     90% 0.00 in 33.00 W/m2
17:41 46.4 °F 43.6 °F 29.87 in Calm     90% 0.00 in 25.00 W/m2
17:46 46.6 °F 43.8 °F 29.87 in SW 11.0 mph 14.0 mph 90% 0.00 in 16.00 W/m2
17:51 46.7 °F 43.9 °F 29.87 in SW 8.0 mph 14.0 mph 90% 0.00 in 47.00 W/m2
17:56 46.7 °F 43.9 °F 29.87 in SSE 2.0 mph 25.0 mph 90% 0.00 in 70.00 W/m2
18:01 46.7 °F 43.9 °F 29.87 in South 9.0 mph 21.0 mph 90% 0.00 in 176.00 W/m2
18:06 46.8 °F 44.0 °F 29.87 in South 7.0 mph 7.0 mph 90% 0.00 in 83.00 W/m2
18:11 46.9 °F 44.1 °F 29.87 in SSE 5.0 mph 17.0 mph 90% 0.00 in 56.00 W/m2
18:16 47.0 °F 44.2 °F 29.87 in South 5.0 mph 5.0 mph 90% 0.00 in 62.00 W/m2
18:21 47.0 °F 44.2 °F 29.87 in South 4.0 mph 12.0 mph 90% 0.00 in 47.00 W/m2
18:26 47.0 °F 44.2 °F 29.86 in South 13.0 mph 18.0 mph 90% 0.00 in 33.00 W/m2
18:31 47.0 °F 44.2 °F 29.87 in South 7.0 mph 9.0 mph 90% 0.00 in 26.00 W/m2
18:36 47.0 °F 44.2 °F 29.86 in South 5.0 mph 5.0 mph 90% 0.00 in 46.00 W/m2
18:41 47.1 °F 44.3 °F 29.86 in SE 4.0 mph 4.0 mph 90% 0.00 in 62.00 W/m2
18:46 47.1 °F 44.3 °F 29.85 in South 7.0 mph 8.0 mph 90% 0.00 in 56.00 W/m2
18:51 47.1 °F 44.3 °F 29.85 in SSE 10.0 mph 10.0 mph 90% 0.00 in 44.00 W/m2
18:56 47.1 °F 44.3 °F 29.85 in South 8.0 mph 8.0 mph 90% 0.00 in 26.00 W/m2
18:57 47.1 °F 44.3 °F 29.85 in SE 11.0 mph 17.0 mph 90% 0.00 in 25.00 W/m2
19:02 47.0 °F 44.2 °F 29.85 in SSE 7.0 mph 13.0 mph 90% 0.00 in 14.00 W/m2
19:07 47.0 °F 44.2 °F 29.85 in South 18.0 mph 20.0 mph 90% 0.00 in 14.00 W/m2
19:12 47.0 °F 44.2 °F 29.84 in South 4.0 mph 13.0 mph 90% 0.00 in 18.00 W/m2
19:17 47.0 °F 44.2 °F 29.84 in SE 10.0 mph 12.0 mph 90% 0.00 in 14.00 W/m2
19:22 46.9 °F 44.1 °F 29.84 in SSE 4.0 mph 17.0 mph 90% 0.00 in 12.00 W/m2
19:27 46.8 °F 44.0 °F 29.84 in South 15.0 mph 17.0 mph 90% 0.00 in 9.00 W/m2
19:32 46.7 °F 43.9 °F 29.84 in South 11.0 mph 14.0 mph 90% 0.00 in 0.00 W/m2
19:37 46.7 °F 43.9 °F 29.84 in South 10.0 mph 13.0 mph 90% 0.00 in 0.00 W/m2
19:42 46.7 °F 43.9 °F 29.83 in South 10.0 mph 12.0 mph 90% 0.00 in 0.00 W/m2
19:47 46.7 °F 43.9 °F 29.83 in SSE 7.0 mph 11.0 mph 90% 0.00 in 0.00 W/m2
19:52 46.8 °F 44.0 °F 29.83 in South 7.0 mph 11.0 mph 90% 0.00 in 0.00 W/m2
19:57 46.8 °F 44.0 °F 29.82 in SSW 14.0 mph 18.0 mph 90% 0.00 in 0.00 W/m2
20:02 46.8 °F 44.0 °F 29.82 in SE 6.0 mph 13.0 mph 90% 0.00 in 0.00 W/m2
20:07 46.9 °F 44.1 °F 29.80 in SSE 7.0 mph 16.0 mph 90% 0.00 in 0.00 W/m2
20:12 46.9 °F 44.1 °F 29.79 in SE 13.0 mph 15.0 mph 90% 0.00 in 0.00 W/m2
20:17 46.9 °F 44.1 °F 29.83 in WSW 9.0 mph 15.0 mph 90% 0.00 in 0.00 W/m2
20:18 46.9 °F 44.1 °F 29.84 in West 9.0 mph 15.0 mph 90% 0.00 in 0.00 W/m2
20:23 46.8 °F 44.0 °F 29.84 in SW 2.0 mph 12.0 mph 90% 0.00 in 0.00 W/m2
20:28 46.4 °F 43.6 °F 29.84 in SW 7.0 mph 17.0 mph 90% 0.00 in 0.00 W/m2
20:33 46.2 °F 43.4 °F 29.84 in Calm   18.0 mph 90% 0.00 in 0.00 W/m2
20:38 46.2 °F 43.4 °F 29.84 in SSW 10.0 mph 16.0 mph 90% 0.06 in 0.00 W/m2
20:43 46.1 °F 43.3 °F 29.86 in SW 8.0 mph 12.0 mph 90% 0.08 in 0.00 W/m2
20:48 45.9 °F 43.1 °F 29.85 in SW 3.0 mph 14.0 mph 90% 0.16 in 0.00 W/m2
20:53 45.6 °F 42.8 °F 29.85 in South 6.0 mph 11.0 mph 90% 0.16 in 0.00 W/m2
20:58 45.5 °F 42.7 °F 29.85 in South 8.0 mph 10.0 mph 90% 0.17 in 0.00 W/m2
21:03 45.2 °F 42.5 °F 29.85 in SSW 2.0 mph 11.0 mph 90% 0.25 in 0.00 W/m2
21:08 45.1 °F 42.3 °F 29.85 in WSW 8.0 mph 18.0 mph 90% 0.22 in 0.00 W/m2
21:13 45.1 °F 42.3 °F 29.86 in SW 9.0 mph 13.0 mph 90% 0.20 in 0.00 W/m2
21:18 45.1 °F 42.3 °F 29.86 in West 1.0 mph 21.0 mph 90% 0.18 in 0.00 W/m2
21:23 45.3 °F 42.5 °F 29.86 in WSW 9.0 mph 14.0 mph 90% 0.18 in 0.00 W/m2
21:28 45.4 °F 42.6 °F 29.86 in West 10.0 mph 14.0 mph 90% 0.16 in 0.00 W/m2
21:33 45.5 °F 42.7 °F 29.86 in West 8.0 mph 17.0 mph 90% 0.14 in 0.00 W/m2
21:38 45.6 °F 42.8 °F 29.86 in WSW 7.0 mph 13.0 mph 90% 0.13 in 0.00 W/m2
21:43 45.6 °F 42.8 °F 29.86 in Calm   13.0 mph 90% 0.10 in 0.00 W/m2
21:48 45.7 °F 43.2 °F 29.86 in SSW 7.0 mph 10.0 mph 91% 0.09 in 0.00 W/m2
21:53 45.7 °F 43.2 °F 29.85 in WSW 12.0 mph 14.0 mph 91% 0.07 in 0.00 W/m2
21:58 45.7 °F 43.2 °F 29.86 in WSW 2.0 mph 11.0 mph 91% 0.04 in 0.00 W/m2
22:03 45.7 °F 43.2 °F 29.86 in SSW 8.0 mph 22.0 mph 91% 0.00 in 0.00 W/m2
22:04 45.7 °F 43.2 °F 29.85 in SSW 1.0 mph 22.0 mph 91% 0.00 in 0.00 W/m2
22:09 45.7 °F 43.2 °F 29.86 in West 6.0 mph 12.0 mph 91% 0.10 in 0.00 W/m2
22:14 45.7 °F 42.9 °F 29.85 in South 4.0 mph 12.0 mph 90% 0.13 in 0.00 W/m2
22:19 45.7 °F 42.9 °F 29.85 in WSW 5.0 mph 10.0 mph 90% 0.10 in 0.00 W/m2
22:24 45.6 °F 42.8 °F 29.85 in SW 3.0 mph 20.0 mph 90% 0.10 in 0.00 W/m2
22:29 45.5 °F 42.7 °F 29.85 in South 16.0 mph 18.0 mph 90% 0.08 in 0.00 W/m2
22:34 45.5 °F 42.7 °F 29.85 in SSW 3.0 mph 15.0 mph 90% 0.08 in 0.00 W/m2
22:39 45.5 °F 43.0 °F 29.85 in WSW 5.0 mph 15.0 mph 91% 0.09 in 0.00 W/m2
22:44 45.5 °F 43.0 °F 29.86 in West 19.0 mph 19.0 mph 91% 0.12 in 0.00 W/m2
22:49 45.2 °F 42.7 °F 29.85 in SSW 10.0 mph 18.0 mph 91% 0.19 in 0.00 W/m2
22:54 44.7 °F 42.0 °F 29.85 in SW 13.0 mph 17.0 mph 90% 0.18 in 0.00 W/m2
22:59 44.5 °F 42.0 °F 29.85 in South 9.0 mph 19.0 mph 91% 0.20 in 0.00 W/m2
23:04 44.5 °F 42.0 °F 29.85 in SW 11.0 mph 15.0 mph 91% 0.20 in 0.00 W/m2
23:09 44.6 °F 42.1 °F 29.85 in SSW 1.0 mph 20.0 mph 91% 0.22 in 0.00 W/m2
23:14 44.7 °F 42.2 °F 29.84 in WSW 11.0 mph 16.0 mph 91% 0.22 in 0.00 W/m2
23:19 45.0 °F 42.5 °F 29.84 in SSW 10.0 mph 17.0 mph 91% 0.18 in 0.00 W/m2
23:24 45.2 °F 42.7 °F 29.84 in SSE 8.0 mph 19.0 mph 91% 0.19 in 0.00 W/m2
23:30 45.3 °F 42.8 °F 29.84 in South 9.0 mph 28.0 mph 91% 0.19 in 0.00 W/m2
23:35 45.4 °F 42.9 °F 29.84 in SSW 9.0 mph 17.0 mph 91% 0.22 in 0.00 W/m2
23:40 45.4 °F 42.9 °F 29.84 in South 3.0 mph 19.0 mph 91% 0.17 in 0.00 W/m2
23:45 45.5 °F 43.0 °F 29.84 in SSW 7.0 mph 26.0 mph 91% 0.16 in 0.00 W/m2
23:50 45.6 °F 43.1 °F 29.85 in SW 8.0 mph 22.0 mph 91% 0.19 in 0.00 W/m2
23:55 45.5 °F 43.0 °F 29.86 in WSW 14.0 mph 18.0 mph 91% 0.21 in 0.00 W/m2
Foresthill Weather
 WU-history PHP script courtesy of   Juneau County Weather.
powered by Cumulus v1.9.3 (1059)
Ambient Weather VWS v14.00
Top Contact Website Map Copyright © 2007 - 2018 Foresthillweather.com Never base important decisions on this or any weather information obtained from the Internet